createdAt,value
2018-04-29T00:00:53.132Z,14.30
2018-04-29T00:03:21.172Z,14.30
2018-04-29T00:05:49.221Z,14.30
2018-04-29T00:08:18.062Z,14.40
2018-04-29T00:10:46.359Z,14.40
2018-04-29T00:13:15.840Z,14.40
2018-04-29T00:15:43.887Z,14.30
2018-04-29T00:18:11.964Z,14.20
2018-04-29T00:20:39.992Z,14.30
2018-04-29T00:23:08.444Z,14.40
2018-04-29T00:25:36.492Z,14.50
2018-04-29T00:28:04.532Z,14.40
2018-04-29T00:30:32.576Z,14.60
2018-04-29T00:33:00.627Z,14.60
2018-04-29T00:35:28.699Z,14.60
2018-04-29T00:37:56.749Z,14.60
2018-04-29T00:40:24.820Z,14.70
2018-04-29T00:42:52.856Z,14.70
2018-04-29T00:45:21.677Z,14.80
2018-04-29T00:47:49.707Z,14.70
2018-04-29T00:50:18.512Z,14.90
2018-04-29T00:52:46.568Z,14.90
2018-04-29T00:55:15.386Z,14.90
2018-04-29T00:57:44.204Z,14.80
2018-04-29T01:00:12.258Z,14.80
2018-04-29T01:02:40.418Z,14.80
2018-04-29T01:05:08.457Z,14.70
2018-04-29T01:07:37.275Z,14.70
2018-04-29T01:10:05.327Z,14.70
2018-04-29T01:12:33.544Z,14.70
2018-04-29T01:15:01.680Z,14.70
2018-04-29T01:17:29.648Z,14.80
2018-04-29T01:19:57.720Z,14.70
2018-04-29T01:22:25.768Z,14.70
2018-04-29T01:24:54.599Z,14.80
2018-04-29T01:27:22.648Z,14.70
2018-04-29T01:29:50.701Z,14.70
2018-04-29T01:32:18.752Z,14.80
2018-04-29T01:34:46.800Z,14.80
2018-04-29T01:37:14.852Z,14.80
2018-04-29T01:39:42.906Z,14.80
2018-04-29T01:42:10.941Z,14.80
2018-04-29T01:44:38.991Z,14.70
2018-04-29T01:47:07.048Z,14.70
2018-04-29T01:49:35.098Z,14.70
2018-04-29T01:52:03.162Z,14.90
2018-04-29T01:54:31.239Z,14.90
2018-04-29T01:56:59.296Z,14.80
2018-04-29T01:59:28.132Z,14.80
2018-04-29T02:01:56.192Z,14.70
2018-04-29T02:04:24.243Z,14.70
2018-04-29T02:06:52.279Z,14.50
2018-04-29T02:09:21.098Z,14.40
2018-04-29T02:11:49.331Z,14.40
2018-04-29T02:14:17.372Z,14.20
2018-04-29T02:16:45.419Z,14.10
2018-04-29T02:19:13.468Z,14.10
2018-04-29T02:21:41.534Z,14.10
2018-04-29T02:24:10.344Z,14.10
2018-04-29T02:26:38.403Z,14.00
2018-04-29T02:29:06.472Z,14.10
2018-04-29T02:31:35.271Z,14.20
2018-04-29T02:34:03.323Z,14.20
2018-04-29T02:36:32.258Z,14.40
2018-04-29T02:39:00.309Z,14.40
2018-04-29T02:41:28.367Z,14.40
2018-04-29T02:43:56.426Z,14.50
2018-04-29T02:46:25.228Z,14.40
2018-04-29T02:48:53.288Z,14.40
2018-04-29T02:51:21.349Z,14.40
2018-04-29T02:53:50.170Z,14.30
2018-04-29T02:56:18.245Z,14.30
2018-04-29T02:58:46.299Z,14.30
2018-04-29T03:01:14.364Z,14.30
2018-04-29T03:03:43.176Z,14.30
2018-04-29T03:06:11.233Z,14.20
2018-04-29T03:08:39.292Z,14.20
2018-04-29T03:11:08.115Z,14.10
2018-04-29T03:13:36.185Z,14.10
2018-04-29T03:16:04.228Z,14.10
2018-04-29T03:18:32.269Z,14.10
2018-04-29T03:21:00.325Z,14.00
2018-04-29T03:23:28.368Z,14.00
2018-04-29T03:25:56.457Z,14.00
2018-04-29T03:28:24.505Z,14.00
2018-04-29T03:30:52.570Z,14.00
2018-04-29T03:33:20.624Z,14.10
2018-04-29T03:35:48.670Z,14.00
2018-04-29T03:38:16.728Z,14.00
2018-04-29T03:40:44.785Z,14.00
2018-04-29T03:43:12.844Z,14.00
2018-04-29T03:45:40.899Z,14.00
2018-04-29T03:48:09.029Z,13.90
2018-04-29T03:50:37.056Z,13.80
2018-04-29T03:53:05.147Z,13.80
2018-04-29T03:55:33.167Z,13.80
2018-04-29T03:58:12.901Z,13.80
2018-04-29T04:00:53.656Z,13.70
2018-04-29T04:03:33.637Z,13.70
2018-04-29T04:06:01.717Z,13.70
2018-04-29T04:08:29.755Z,13.70
2018-04-29T04:10:58.567Z,13.70
2018-04-29T04:13:26.615Z,13.60
2018-04-29T04:15:54.663Z,13.60
2018-04-29T04:18:23.304Z,13.60
2018-04-29T04:20:51.340Z,13.50
2018-04-29T04:23:19.371Z,13.50
2018-04-29T04:25:47.429Z,13.50
2018-04-29T04:28:15.462Z,13.50
2018-04-29T04:30:43.517Z,13.50
2018-04-29T04:33:12.661Z,13.60
2018-04-29T04:35:40.710Z,13.60
2018-04-29T04:38:08.751Z,13.60
2018-04-29T04:40:37.570Z,13.60
2018-04-29T04:43:05.608Z,13.60
2018-04-29T04:45:34.429Z,13.80
2018-04-29T04:48:02.480Z,13.70
2018-04-29T04:50:31.295Z,13.80
2018-04-29T04:52:59.356Z,13.80
2018-04-29T04:55:27.403Z,13.90
2018-04-29T04:57:56.225Z,13.90
2018-04-29T05:00:24.272Z,13.90
2018-04-29T05:02:53.102Z,13.90
2018-04-29T05:05:21.144Z,13.90
2018-04-29T05:07:49.338Z,13.80
2018-04-29T05:10:17.389Z,13.90
2018-04-29T05:12:45.432Z,14.00
2018-04-29T05:15:13.473Z,14.10
2018-04-29T05:17:41.529Z,14.20
2018-04-29T05:20:09.575Z,14.20
2018-04-29T05:22:37.615Z,14.30
2018-04-29T05:25:06.437Z,14.30
2018-04-29T05:27:34.494Z,14.30
2018-04-29T05:30:02.561Z,14.30
2018-04-29T05:32:31.367Z,14.40
2018-04-29T05:34:59.416Z,14.40
2018-04-29T05:37:27.471Z,14.50
2018-04-29T05:39:55.556Z,14.60
2018-04-29T05:42:23.605Z,14.60
2018-04-29T05:44:51.675Z,14.60
2018-04-29T05:47:19.721Z,14.60
2018-04-29T05:49:47.810Z,14.50
2018-04-29T05:52:15.813Z,14.50
2018-04-29T05:54:43.869Z,14.50
2018-04-29T05:57:12.671Z,14.60
2018-04-29T05:59:40.719Z,14.60
2018-04-29T06:02:08.776Z,14.60
2018-04-29T06:04:36.827Z,14.60
2018-04-29T06:07:04.873Z,14.60
2018-04-29T06:09:33.832Z,14.60
2018-04-29T06:12:02.688Z,14.60
2018-04-29T06:14:30.723Z,14.60
2018-04-29T06:16:58.783Z,14.70
2018-04-29T06:19:26.820Z,14.60
2018-04-29T06:21:54.873Z,14.60
2018-04-29T06:24:22.920Z,14.60
2018-04-29T06:26:50.960Z,14.60
2018-04-29T06:29:19.004Z,14.60
2018-04-29T06:31:47.056Z,14.70
2018-04-29T06:34:15.099Z,14.80
2018-04-29T06:36:43.155Z,14.90
2018-04-29T06:39:11.189Z,15.00
2018-04-29T06:41:39.248Z,15.10
2018-04-29T06:44:07.328Z,15.10
2018-04-29T06:46:35.376Z,15.10
2018-04-29T06:49:03.415Z,15.20
2018-04-29T06:51:31.464Z,15.20
2018-04-29T06:53:59.500Z,15.20
2018-04-29T06:56:27.572Z,15.20
2018-04-29T06:58:55.608Z,15.20
2018-04-29T07:01:24.427Z,15.40
2018-04-29T07:03:52.472Z,15.40
2018-04-29T07:06:20.528Z,15.50
2018-04-29T07:08:48.573Z,15.50
2018-04-29T07:11:16.636Z,15.60
2018-04-29T07:13:45.462Z,15.80
2018-04-29T07:16:13.521Z,15.80
2018-04-29T07:18:41.553Z,15.80
2018-04-29T07:21:09.612Z,15.90
2018-04-29T07:23:37.649Z,16.00
2018-04-29T07:26:05.753Z,16.10
2018-04-29T07:28:33.756Z,16.10
2018-04-29T07:31:02.564Z,16.30
2018-04-29T07:33:30.712Z,16.30
2018-04-29T07:35:59.529Z,16.40
2018-04-29T07:38:27.604Z,16.40
2018-04-29T07:40:55.647Z,16.50
2018-04-29T07:43:24.462Z,16.70
2018-04-29T07:45:52.504Z,16.60
2018-04-29T07:48:20.567Z,16.70
2018-04-29T07:50:49.379Z,16.90
2018-04-29T07:53:17.427Z,16.90
2018-04-29T07:55:46.246Z,17.20
2018-04-29T07:58:14.292Z,17.10
2018-04-29T08:00:43.168Z,17.30
2018-04-29T08:03:11.940Z,17.40
2018-04-29T08:05:40.018Z,17.40
2018-04-29T08:08:08.046Z,17.60
2018-04-29T08:10:36.123Z,17.60
2018-04-29T08:13:04.173Z,17.80
2018-04-29T08:15:32.327Z,17.90
2018-04-29T08:18:00.280Z,18.00
2018-04-29T08:20:29.088Z,18.10
2018-04-29T08:22:57.921Z,18.20
2018-04-29T08:25:25.957Z,18.20
2018-04-29T08:27:54.004Z,18.30
2018-04-29T08:30:22.821Z,18.30
2018-04-29T08:32:50.871Z,18.30
2018-04-29T08:35:18.940Z,18.30
2018-04-29T08:37:47.768Z,18.50
2018-04-29T08:40:15.812Z,18.50
2018-04-29T08:42:43.868Z,18.60
2018-04-29T08:45:12.680Z,18.80
2018-04-29T08:47:40.724Z,18.80
2018-04-29T08:50:09.542Z,19.00
2018-04-29T08:52:37.603Z,19.00
2018-04-29T08:55:05.635Z,19.20
2018-04-29T08:57:33.679Z,19.20
2018-04-29T09:00:01.723Z,19.30
2018-04-29T09:02:29.938Z,19.30
2018-04-29T09:04:58.810Z,19.40
2018-04-29T09:07:26.867Z,19.50
2018-04-29T09:09:54.914Z,19.70
2018-04-29T09:12:23.736Z,19.90
2018-04-29T09:14:51.852Z,19.90
2018-04-29T09:17:19.891Z,20.00
2018-04-29T09:19:48.089Z,20.10
2018-04-29T09:22:16.167Z,20.20
2018-04-29T09:24:44.235Z,20.40
2018-04-29T09:27:12.325Z,20.80
2018-04-29T09:29:41.169Z,25.30
2018-04-29T09:32:09.349Z,25.20
2018-04-29T09:34:37.401Z,28.60
2018-04-29T09:37:05.517Z,31.70
2018-04-29T09:39:33.500Z,34.40
2018-04-29T09:42:02.300Z,38.70
2018-04-29T09:44:30.353Z,38.50
2018-04-29T09:46:59.156Z,40.90
2018-04-29T09:49:27.212Z,40.80
2018-04-29T09:51:55.254Z,41.70
2018-04-29T09:54:23.316Z,42.40
2018-04-29T09:56:51.364Z,42.40
2018-04-29T09:59:19.426Z,42.50
2018-04-29T10:01:57.376Z,42.90
2018-04-29T10:04:25.432Z,42.10
2018-04-29T10:06:53.466Z,40.50
2018-04-29T10:09:21.521Z,39.40
2018-04-29T10:11:49.709Z,38.60
2018-04-29T10:14:17.733Z,36.00
2018-04-29T10:16:45.784Z,36.00
2018-04-29T10:19:13.849Z,34.30
2018-04-29T10:21:41.896Z,32.80
2018-04-29T10:24:09.965Z,32.30
2018-04-29T10:26:38.004Z,31.60
2018-04-29T10:29:06.827Z,31.40
2018-04-29T10:31:34.880Z,31.40
2018-04-29T10:34:02.933Z,30.10
2018-04-29T10:36:30.963Z,29.20
2018-04-29T10:38:59.036Z,29.00
2018-04-29T10:41:28.117Z,28.40
2018-04-29T10:43:56.188Z,27.90
2018-04-29T10:46:24.239Z,27.70
2018-04-29T10:48:52.296Z,27.90
2018-04-29T10:51:20.333Z,27.40
2018-04-29T10:53:48.385Z,27.30
2018-04-29T10:56:16.438Z,27.00
2018-04-29T10:58:44.607Z,27.10
2018-04-29T11:01:12.573Z,27.10
2018-04-29T11:03:40.681Z,26.90
2018-04-29T11:06:08.689Z,26.90
2018-04-29T11:08:37.516Z,27.00
2018-04-29T11:11:05.604Z,27.00
2018-04-29T11:13:33.648Z,26.90
2018-04-29T11:16:01.700Z,26.90
2018-04-29T11:18:29.756Z,26.90
2018-04-29T11:20:58.580Z,26.80
2018-04-29T11:23:26.613Z,26.80
2018-04-29T11:25:54.680Z,26.90
2018-04-29T11:28:22.728Z,27.20
2018-04-29T11:30:50.800Z,27.40
2018-04-29T11:33:18.840Z,27.50
2018-04-29T11:35:46.955Z,27.80
2018-04-29T11:38:14.992Z,27.90
2018-04-29T11:40:43.107Z,28.00
2018-04-29T11:43:11.092Z,28.10
2018-04-29T11:45:39.140Z,28.20
2018-04-29T11:48:07.197Z,28.20
2018-04-29T11:50:35.253Z,28.30
2018-04-29T11:53:03.303Z,28.40
2018-04-29T11:55:31.370Z,28.30
2018-04-29T11:57:59.408Z,27.90
2018-04-29T12:00:28.236Z,27.00
2018-04-29T12:02:56.288Z,26.90
2018-04-29T12:05:24.358Z,27.00
2018-04-29T12:07:52.420Z,27.10
2018-04-29T12:10:20.472Z,27.50
2018-04-29T12:12:48.508Z,27.90
2018-04-29T12:15:16.580Z,27.90
2018-04-29T12:17:44.652Z,27.90
2018-04-29T12:20:12.738Z,28.00
2018-04-29T12:22:40.764Z,28.20
2018-04-29T12:25:08.816Z,28.60
2018-04-29T12:27:36.881Z,28.70
2018-04-29T12:30:05.748Z,28.00
2018-04-29T12:32:33.804Z,27.90
2018-04-29T12:35:01.876Z,27.90
2018-04-29T12:37:31.917Z,28.10
2018-04-29T12:40:00.764Z,27.70
2018-04-29T12:42:28.819Z,27.70
2018-04-29T12:44:56.884Z,27.90
2018-04-29T12:47:24.943Z,28.10
2018-04-29T12:49:53.004Z,28.20
2018-04-29T12:52:21.177Z,28.40
2018-04-29T12:54:49.160Z,28.50
2018-04-29T12:57:17.240Z,28.60
2018-04-29T12:59:45.304Z,28.60
2018-04-29T13:02:13.386Z,28.80
2018-04-29T13:04:41.506Z,28.90
2018-04-29T13:07:09.568Z,29.10
2018-04-29T13:09:37.608Z,29.40
2018-04-29T13:12:05.665Z,29.50
2018-04-29T13:14:33.716Z,29.60
2018-04-29T13:17:01.795Z,29.00
2018-04-29T13:19:29.848Z,28.70
2018-04-29T13:21:59.412Z,28.70
2018-04-29T13:24:27.559Z,28.70
2018-04-29T13:26:55.667Z,28.70
2018-04-29T13:29:24.052Z,28.90
2018-04-29T13:31:52.220Z,29.10
2018-04-29T13:34:20.376Z,29.30
2018-04-29T13:36:48.952Z,29.30
2018-04-29T13:39:17.078Z,29.40
2018-04-29T13:41:46.105Z,29.50
2018-04-29T13:44:14.214Z,29.50
2018-04-29T13:46:42.388Z,30.00
2018-04-29T13:49:10.511Z,30.60
2018-04-29T13:51:38.620Z,31.20
2018-04-29T13:54:06.682Z,31.50
2018-04-29T13:56:34.861Z,31.60
2018-04-29T13:59:02.963Z,31.40
2018-04-29T14:01:31.115Z,31.10
2018-04-29T14:03:59.407Z,31.00
2018-04-29T14:06:27.486Z,30.90
2018-04-29T14:08:56.347Z,30.20
2018-04-29T14:11:24.465Z,30.10
2018-04-29T14:13:53.325Z,29.80
2018-04-29T14:16:21.399Z,29.80
2018-04-29T14:18:49.532Z,29.80
2018-04-29T14:21:17.593Z,29.90
2018-04-29T14:23:46.106Z,29.90
2018-04-29T14:26:14.157Z,30.00
2018-04-29T14:28:42.250Z,29.80
2018-04-29T14:31:10.337Z,29.60
2018-04-29T14:33:38.406Z,29.80
2018-04-29T14:36:06.484Z,29.70
2018-04-29T14:38:35.349Z,29.60
2018-04-29T14:41:03.417Z,29.60
2018-04-29T14:43:31.532Z,29.70
2018-04-29T14:45:59.599Z,29.70
2018-04-29T14:48:27.674Z,29.90
2018-04-29T14:50:55.766Z,29.70
2018-04-29T14:53:23.837Z,29.50
2018-04-29T14:55:51.966Z,29.50
2018-04-29T14:58:20.030Z,29.40
2018-04-29T15:00:48.102Z,29.20
2018-04-29T15:03:16.221Z,29.20
2018-04-29T15:05:44.295Z,29.10
2018-04-29T15:08:12.436Z,28.90
2018-04-29T15:10:41.295Z,28.40
2018-04-29T15:13:09.385Z,28.40
2018-04-29T15:15:38.432Z,28.60
2018-04-29T15:18:06.535Z,28.80
2018-04-29T15:20:34.613Z,28.90
2018-04-29T15:23:02.706Z,29.00
2018-04-29T15:25:30.761Z,28.90
2018-04-29T15:27:58.836Z,29.10
2018-04-29T15:30:26.932Z,29.20
2018-04-29T15:32:54.977Z,29.40
2018-04-29T15:35:23.060Z,29.40
2018-04-29T15:37:51.640Z,29.40
2018-04-29T15:40:19.732Z,29.50
2018-04-29T15:42:48.556Z,29.30
2018-04-29T15:45:17.439Z,29.30
2018-04-29T15:47:45.504Z,28.80
2018-04-29T15:50:13.616Z,28.50
2018-04-29T15:52:41.688Z,28.30
2018-04-29T15:55:09.768Z,28.00
2018-04-29T15:57:37.930Z,27.80
2018-04-29T16:00:06.070Z,27.80
2018-04-29T16:02:34.187Z,27.90
2018-04-29T16:05:02.363Z,28.00
2018-04-29T16:07:38.881Z,28.00
2018-04-29T16:10:06.963Z,28.10
2018-04-29T16:12:35.039Z,28.10
2018-04-29T16:15:03.112Z,28.00
2018-04-29T16:17:31.499Z,27.90
2018-04-29T16:19:59.581Z,27.80
2018-04-29T16:22:27.640Z,27.90
2018-04-29T16:24:55.715Z,27.90
2018-04-29T16:27:24.139Z,27.80
2018-04-29T16:29:52.246Z,27.80
2018-04-29T16:32:20.321Z,27.80
2018-04-29T16:34:48.409Z,27.70
2018-04-29T16:37:16.495Z,27.60
2018-04-29T16:39:44.576Z,27.60
2018-04-29T16:42:12.648Z,27.30
2018-04-29T16:44:40.721Z,27.10
2018-04-29T16:47:09.015Z,27.00
2018-04-29T16:49:37.921Z,26.80
2018-04-29T16:52:06.008Z,26.80
2018-04-29T16:54:34.099Z,26.70
2018-04-29T16:57:02.244Z,26.60
2018-04-29T16:59:30.324Z,26.60
2018-04-29T17:01:58.449Z,26.50
2018-04-29T17:04:26.604Z,26.50
2018-04-29T17:06:54.687Z,26.40
2018-04-29T17:09:22.826Z,26.40
2018-04-29T17:11:50.849Z,26.30
2018-04-29T17:14:18.936Z,26.30
2018-04-29T17:16:47.061Z,26.10
2018-04-29T17:19:15.153Z,26.10
2018-04-29T17:21:44.095Z,25.80
2018-04-29T17:24:13.003Z,25.70
2018-04-29T17:26:46.933Z,25.60
2018-04-29T17:29:15.439Z,25.60
2018-04-29T17:31:44.244Z,25.30
2018-04-29T17:34:12.324Z,25.30
2018-04-29T17:36:40.386Z,25.30
2018-04-29T17:39:08.462Z,25.20
2018-04-29T17:41:36.504Z,25.10
2018-04-29T17:44:04.594Z,25.00
2018-04-29T17:46:32.641Z,24.90
2018-04-29T17:49:01.468Z,24.60
2018-04-29T17:51:29.529Z,24.60
2018-04-29T17:53:57.576Z,24.50
2018-04-29T17:56:26.416Z,24.30
2018-04-29T17:58:54.471Z,24.30
2018-04-29T18:01:22.629Z,24.30
2018-04-29T18:03:50.764Z,24.20
2018-04-29T18:06:19.099Z,24.10
2018-04-29T18:08:47.882Z,23.90
2018-04-29T18:11:15.940Z,23.90
2018-04-29T18:13:44.000Z,23.80
2018-04-29T18:16:12.826Z,23.60
2018-04-29T18:18:40.881Z,23.60
2018-04-29T18:21:09.062Z,23.60
2018-04-29T18:23:37.097Z,23.50
2018-04-29T18:26:05.943Z,23.50
2018-04-29T18:28:33.988Z,23.40
2018-04-29T18:31:02.812Z,23.30
2018-04-29T18:33:30.884Z,23.30
2018-04-29T18:35:58.953Z,23.20
2018-04-29T18:38:27.000Z,23.00
2018-04-29T18:40:55.167Z,22.90
2018-04-29T18:43:23.197Z,22.90
2018-04-29T18:45:52.025Z,22.90
2018-04-29T18:48:21.084Z,22.90
2018-04-29T18:50:50.074Z,22.90
2018-04-29T18:53:17.975Z,22.90
2018-04-29T18:55:46.033Z,22.90
2018-04-29T18:58:14.098Z,22.90
2018-04-29T19:00:42.155Z,22.80
2018-04-29T19:03:10.991Z,22.70
2018-04-29T19:05:46.758Z,22.70
2018-04-29T19:08:14.803Z,22.70
2018-04-29T19:10:42.868Z,22.70
2018-04-29T19:13:10.936Z,22.60
2018-04-29T19:15:39.013Z,22.60
2018-04-29T19:18:13.830Z,22.60
2018-04-29T19:20:41.918Z,22.50
2018-04-29T19:23:10.011Z,22.40
2018-04-29T19:25:38.569Z,22.30
2018-04-29T19:28:06.615Z,22.30
2018-04-29T19:30:34.684Z,22.40
2018-04-29T19:33:03.514Z,22.30
2018-04-29T19:35:31.579Z,22.30
2018-04-29T19:37:59.652Z,22.30
2018-04-29T19:40:27.709Z,22.30
2018-04-29T19:42:55.783Z,22.30
2018-04-29T19:45:23.914Z,22.20
2018-04-29T19:47:52.053Z,22.20
2018-04-29T19:50:20.113Z,22.10
2018-04-29T19:52:48.195Z,22.10
2018-04-29T19:55:16.244Z,22.00
2018-04-29T19:57:46.228Z,22.00
2018-04-29T20:00:15.053Z,22.00
2018-04-29T20:02:43.145Z,21.90
2018-04-29T20:05:11.196Z,21.90
2018-04-29T20:07:39.272Z,21.90
2018-04-29T20:10:07.337Z,21.80
2018-04-29T20:12:35.419Z,21.80
2018-04-29T20:15:03.495Z,21.80
2018-04-29T20:17:31.571Z,21.70
2018-04-29T20:19:59.632Z,21.70
2018-04-29T20:22:27.724Z,21.70
2018-04-29T20:24:55.788Z,21.70
2018-04-29T20:27:23.894Z,21.70
2018-04-29T20:29:56.012Z,21.60
2018-04-29T20:32:33.498Z,21.60
2018-04-29T20:35:01.572Z,21.60
2018-04-29T20:37:30.401Z,21.60
2018-04-29T20:39:58.496Z,21.60
2018-04-29T20:42:26.548Z,21.60
2018-04-29T20:44:54.684Z,21.60
2018-04-29T20:47:22.761Z,21.60
2018-04-29T20:49:50.867Z,21.60
2018-04-29T20:52:18.926Z,21.60
2018-04-29T20:54:46.981Z,21.50
2018-04-29T20:57:15.056Z,21.50
2018-04-29T20:59:43.134Z,21.40
2018-04-29T21:02:11.445Z,21.40
2018-04-29T21:04:39.528Z,21.40
2018-04-29T21:07:08.979Z,21.30
2018-04-29T21:09:37.139Z,21.30
2018-04-29T21:12:05.464Z,21.30
2018-04-29T21:14:35.554Z,21.20
2018-04-29T21:17:03.613Z,21.20
2018-04-29T21:19:31.733Z,21.20
2018-04-29T21:21:59.784Z,21.10
2018-04-29T21:24:29.506Z,21.10
2018-04-29T21:26:57.829Z,21.00
2018-04-29T21:29:25.980Z,20.90
2018-04-29T21:31:54.063Z,20.80
2018-04-29T21:34:22.133Z,20.70
2018-04-29T21:36:50.216Z,20.70
2018-04-29T21:39:18.274Z,20.60
2018-04-29T21:41:46.348Z,20.60
2018-04-29T21:44:14.418Z,20.50
2018-04-29T21:46:42.512Z,20.50
2018-04-29T21:49:10.588Z,20.50
2018-04-29T21:51:38.656Z,20.40
2018-04-29T21:54:06.711Z,20.40
2018-04-29T21:56:34.783Z,20.40
2018-04-29T21:59:02.837Z,20.30
2018-04-29T22:01:30.892Z,20.40
2018-04-29T22:03:58.965Z,20.40
2018-04-29T22:06:27.134Z,20.30
2018-04-29T22:08:55.956Z,20.30
2018-04-29T22:11:24.027Z,20.30
2018-04-29T22:13:52.096Z,20.30
2018-04-29T22:16:20.166Z,20.20
2018-04-29T22:18:48.227Z,20.20
2018-04-29T22:21:17.063Z,20.10
2018-04-29T22:23:45.134Z,20.10
2018-04-29T22:26:13.194Z,20.10
2018-04-29T22:28:41.263Z,20.00
2018-04-29T22:31:09.344Z,20.00
2018-04-29T22:33:37.402Z,20.00
2018-04-29T22:36:05.464Z,20.00
2018-04-29T22:38:33.520Z,20.00
2018-04-29T22:41:02.353Z,20.10
2018-04-29T22:43:30.408Z,20.00
2018-04-29T22:45:58.481Z,20.20
2018-04-29T22:48:26.821Z,20.30
2018-04-29T22:50:54.877Z,20.30
2018-04-29T22:53:22.952Z,20.20
2018-04-29T22:55:52.961Z,20.20
2018-04-29T22:58:21.032Z,20.20
2018-04-29T23:00:49.103Z,20.20
2018-04-29T23:03:17.152Z,20.10
2018-04-29T23:05:45.980Z,20.10
2018-04-29T23:08:14.051Z,20.10
2018-04-29T23:10:42.232Z,20.10
2018-04-29T23:13:10.294Z,20.00
2018-04-29T23:15:38.355Z,20.00
2018-04-29T23:18:06.439Z,20.00
2018-04-29T23:20:34.491Z,19.90
2018-04-29T23:23:02.551Z,19.90
2018-04-29T23:25:31.384Z,19.70
2018-04-29T23:27:59.453Z,19.70
2018-04-29T23:30:27.516Z,19.70
2018-04-29T23:32:55.583Z,19.70
2018-04-29T23:35:23.665Z,19.70
2018-04-29T23:37:51.700Z,19.70
2018-04-29T23:40:19.765Z,19.60
2018-04-29T23:42:47.815Z,19.60
2018-04-29T23:45:15.880Z,19.50
2018-04-29T23:47:44.044Z,19.40
2018-04-29T23:50:11.996Z,19.40
2018-04-29T23:52:40.039Z,19.30
2018-04-29T23:55:08.096Z,19.20
2018-04-29T23:57:36.164Z,19.10
